Time;durP1;ratioP1;P1;durP2;ratioP2;P2;SDS_P1;SDS_P2;PMS_P1;PMS_P2;Temp;Humidity;BMP_temperature;BMP_pressure;BME280_temperature;BME280_humidity;BME280_pressure;Samples;Min_cycle;Max_cycle;Signal;HPM_P1;HPM_P2
2022/12/23 00:01:24;;;;;;;17.08;11.15;;;15.00;99.40;;;;;;5052401;28;20043;-67
2022/12/23 00:03:50;;;;;;;17.20;11.32;;;15.00;98.20;;;;;;5074889;28;20130;-67
2022/12/23 00:06:16;;;;;;;17.80;11.00;;;15.20;98.10;;;;;;5074586;28;20395;-67
2022/12/23 00:08:42;;;;;;;16.27;10.65;;;14.90;98.10;;;;;;5072156;28;20532;-67
2022/12/23 00:11:16;;;;;;;17.55;11.23;;;14.90;98.00;;;;;;5072332;28;20049;-66
2022/12/23 00:16:26;;;;;;;16.05;10.85;;;15.00;99.10;;;;;;5073221;28;20048;-68
2022/12/23 00:18:53;;;;;;;17.27;11.27;;;14.70;98.00;;;;;;5034995;28;20039;-66
2022/12/23 00:21:19;;;;;;;17.77;10.73;;;14.90;99.50;;;;;;5063613;28;20040;-66
2022/12/23 00:23:46;;;;;;;17.17;11.05;;;14.70;99.10;;;;;;5074509;28;20048;-65
2022/12/23 00:26:17;;;;;;;17.90;10.93;;;14.80;99.20;;;;;;5071310;28;20056;-66
2022/12/23 00:28:43;;;;;;;19.63;12.20;;;14.70;99.10;;;;;;5074259;28;20108;-67
2022/12/23 00:31:09;;;;;;;16.95;11.60;;;14.80;99.20;;;;;;5071595;28;20135;-66
2022/12/23 00:33:38;;;;;;;18.42;11.43;;;14.80;99.10;;;;;;5070265;28;20048;-66
2022/12/23 00:36:30;;;;;;;15.40;10.32;;;14.90;98.00;;;;;;5035203;28;20475;-66
2022/12/23 00:44:26;;;;;;;18.38;11.35;;;14.80;98.00;;;;;;5074039;28;20133;-66
2022/12/23 00:46:52;;;;;;;17.45;11.20;;;14.90;99.10;;;;;;5072687;28;20072;-66
2022/12/23 00:52:03;;;;;;;18.45;11.80;;;14.80;99.00;;;;;;5066362;28;20070;-68
2022/12/23 00:54:28;;;;;;;16.23;11.32;;;14.90;99.10;;;;;;5074012;28;20447;-65
2022/12/23 00:56:55;;;;;;;15.38;10.43;;;;;;;;;;5074167;28;20040;-65
2022/12/23 00:59:20;;;;;;;16.48;11.32;;;14.90;99.20;;;;;;5073745;28;20080;-66
2022/12/23 01:07:15;;;;;;;16.30;10.50;;;14.80;99.00;;;;;;5073239;28;20059;-66
2022/12/23 01:09:40;;;;;;;16.02;10.82;;;14.60;97.90;;;;;;5035378;28;20050;-66
2022/12/23 01:12:06;;;;;;;16.40;10.45;;;14.70;99.00;;;;;;5056065;28;20036;-67
2022/12/23 01:14:32;;;;;;;14.20;10.00;;;14.90;99.10;;;;;;5073507;28;20045;-67
2022/12/23 01:16:58;;;;;;;15.55;10.63;;;14.80;99.00;;;;;;5073832;28;20045;-66
2022/12/23 01:19:24;;;;;;;17.13;10.88;;;;;;;;;;5073498;28;20037;-67
2022/12/23 01:21:50;;;;;;;16.08;10.27;;;14.80;97.80;;;;;;5071400;28;20040;-67
2022/12/23 01:24:16;;;;;;;17.23;11.13;;;14.80;99.40;;;;;;5072616;28;20481;-66
2022/12/23 01:26:41;;;;;;;17.10;10.98;;;14.70;99.00;;;;;;5068114;28;20036;-67
2022/12/23 01:29:07;;;;;;;15.80;10.27;;;14.90;99.10;;;;;;5073671;28;20130;-67
2022/12/23 01:31:33;;;;;;;15.60;9.77;;;;;;;;;;5072104;28;20375;-67
2022/12/23 01:33:59;;;;;;;16.30;11.02;;;14.80;99.00;;;;;;5072924;28;20044;-66
2022/12/23 01:36:25;;;;;;;15.18;10.65;;;14.90;99.00;;;;;;5073574;28;20490;-66
2022/12/23 01:38:51;;;;;;;16.20;11.32;;;14.80;99.00;;;;;;5073570;28;20044;-68
2022/12/23 01:44:43;;;;;;;16.20;10.05;;;14.80;99.00;;;;;;5065325;28;20106;-67
2022/12/23 01:47:16;;;;;;;15.30;10.45;;;15.00;99.10;;;;;;5073973;28;20053;-68
2022/12/23 01:49:42;;;;;;;16.70;10.48;;;14.70;97.70;;;;;;5072734;28;20054;-67
2022/12/23 01:52:08;;;;;;;13.68;9.55;;;14.70;98.90;;;;;;5066357;28;20116;-67
2022/12/23 01:54:34;;;;;;;14.70;9.98;;;14.90;98.90;;;;;;5066808;28;20059;-68
2022/12/23 01:57:00;;;;;;;15.75;10.32;;;15.00;98.40;;;;;;5073090;28;20040;-67
2022/12/23 02:04:54;;;;;;;16.17;10.77;;;;;;;;;;5065496;28;20502;-67
2022/12/23 02:10:05;;;;;;;15.38;10.52;;;15.00;98.90;;;;;;5073275;28;20401;-66
2022/12/23 02:12:37;;;;;;;16.17;10.75;;;14.80;98.90;;;;;;5072089;28;20409;-67
2022/12/23 02:18:21;;;;;;;14.68;10.13;;;15.00;97.00;;;;;;5035684;28;20045;-67
2022/12/23 02:20:47;;;;;;;16.70;10.45;;;14.80;97.60;;;;;;5035809;28;20060;-67
2022/12/23 02:23:19;;;;;;;16.00;10.55;;;;;;;;;;5042642;28;20040;-66
2022/12/23 02:26:03;;;;;;;14.10;9.90;;;14.80;98.90;;;;;;5076105;28;20072;-67
2022/12/23 02:28:39;;;;;;;15.23;10.15;;;15.10;97.50;;;;;;5076582;28;20131;-66
2022/12/23 02:31:16;;;;;;;16.10;10.05;;;15.00;98.80;;;;;;5059587;28;20048;-66
2022/12/23 02:33:52;;;;;;;15.07;10.27;;;15.00;98.70;;;;;;5042568;28;20051;-67
2022/12/23 02:36:32;;;;;;;15.65;10.10;;;14.90;98.70;;;;;;5058992;28;20371;-67
2022/12/23 02:39:07;;;;;;;15.52;10.68;;;14.80;98.60;;;;;;5072032;28;20110;-67
2022/12/23 02:41:51;;;;;;;15.55;9.93;;;15.10;96.90;;;;;;5075615;28;20043;-66
2022/12/23 02:44:32;;;;;;;14.80;9.98;;;15.00;98.80;;;;;;5072981;28;20486;-67
2022/12/23 02:47:05;;;;;;;17.30;10.57;;;14.80;98.60;;;;;;5059118;28;20040;-66
2022/12/23 02:49:38;;;;;;;16.17;10.70;;;15.10;98.70;;;;;;5056054;28;20033;-68
2022/12/23 02:52:08;;;;;;;15.77;10.45;;;15.00;98.70;;;;;;5035406;28;20060;-68
2022/12/23 02:54:37;;;;;;;16.83;10.77;;;14.90;98.60;;;;;;5041713;28;20072;-66
2022/12/23 02:57:04;;;;;;;15.98;10.38;;;15.10;98.70;;;;;;5075272;28;20418;-67
2022/12/23 02:59:34;;;;;;;15.23;10.35;;;14.80;97.40;;;;;;5057546;28;20049;-67
2022/12/23 03:01:59;;;;;;;15.02;10.27;;;14.70;98.50;;;;;;5059289;28;20108;-66
2022/12/23 03:04:25;;;;;;;16.17;10.73;;;15.10;98.70;;;;;;5074973;28;20053;-66
2022/12/23 03:06:52;;;;;;;15.10;10.20;;;15.10;97.50;;;;;;5065038;28;20155;-66
2022/12/23 03:09:43;;;;;;;16.42;10.40;;;14.90;97.40;;;;;;5036238;28;20079;-66
2022/12/23 03:12:22;;;;;;;15.43;10.00;;;14.90;96.70;;;;;;5053266;28;20084;-67
2022/12/23 03:15:10;;;;;;;14.27;9.80;;;15.10;97.50;;;;;;5072810;28;20106;-66
2022/12/23 03:17:47;;;;;;;17.25;10.38;;;14.80;98.60;;;;;;5053819;28;20115;-66
2022/12/23 03:20:25;;;;;;;16.52;10.10;;;15.00;98.60;;;;;;5075457;28;20052;-67
2022/12/23 03:23:07;;;;;;;16.20;10.75;;;15.20;96.80;;;;;;5076224;28;20052;-66
2022/12/23 03:25:37;;;;;;;16.37;10.13;;;15.00;98.60;;;;;;5038085;28;20448;-66
2022/12/23 03:28:16;;;;;;;16.63;10.70;;;14.60;98.50;;;;;;5058236;28;20054;-64
2022/12/23 03:30:43;;;;;;;15.90;10.85;;;15.00;98.70;;;;;;5059110;28;20080;-66
2022/12/23 03:33:15;;;;;;;15.40;10.20;;;14.90;98.70;;;;;;5058076;28;20114;-66
2022/12/23 03:35:44;;;;;;;17.70;10.73;;;15.00;98.60;;;;;;5055549;28;20393;-66
2022/12/23 03:38:10;;;;;;;17.05;10.45;;;;;;;;;;5075719;28;20228;-66
2022/12/23 03:40:47;;;;;;;15.93;10.63;;;15.10;96.60;;;;;;5069942;28;20123;-66
2022/12/23 03:43:19;;;;;;;16.50;10.63;;;14.90;98.50;;;;;;5034837;28;20060;-65
2022/12/23 03:45:53;;;;;;;17.50;11.25;;;14.90;98.40;;;;;;5040183;28;20405;-67
2022/12/23 03:48:28;;;;;;;17.30;10.95;;;15.00;97.30;;;;;;5058197;28;20458;-67
2022/12/23 03:50:56;;;;;;;18.00;11.20;;;15.00;98.50;;;;;;5074004;28;20052;-66
2022/12/23 03:53:30;;;;;;;17.42;11.27;;;15.00;97.30;;;;;;5074042;28;20094;-67
2022/12/23 03:56:02;;;;;;;16.10;10.95;;;14.90;98.40;;;;;;5068752;28;20120;-68
2022/12/23 03:58:33;;;;;;;17.15;11.50;;;15.10;96.50;;;;;;5039275;28;20120;-66
2022/12/23 04:01:08;;;;;;;17.90;11.90;;;14.90;98.40;;;;;;5034934;28;20049;-66
2022/12/23 04:03:38;;;;;;;18.65;11.63;;;15.00;98.50;;;;;;5034227;28;20073;-66
2022/12/23 04:06:05;;;;;;;15.90;10.32;;;15.00;98.40;;;;;;5045953;28;20579;-64
2022/12/23 04:08:33;;;;;;;18.85;11.77;;;14.90;98.40;;;;;;5072804;28;20113;-66
2022/12/23 04:10:59;;;;;;;19.50;11.55;;;15.00;98.40;;;;;;5057118;28;20037;-67
2022/12/23 04:13:26;;;;;;;16.83;11.45;;;15.10;98.50;;;;;;5074909;28;20542;-66
2022/12/23 04:15:52;;;;;;;18.08;11.38;;;14.70;98.30;;;;;;5048907;28;20046;-67
2022/12/23 04:18:17;;;;;;;18.42;11.80;;;15.10;98.40;;;;;;5074465;28;20044;-66
2022/12/23 04:20:43;;;;;;;18.15;12.55;;;14.90;98.40;;;;;;5074828;28;20086;-67
2022/12/23 04:23:09;;;;;;;19.35;11.90;;;15.00;98.40;;;;;;5073378;28;20041;-66
2022/12/23 04:25:35;;;;;;;19.90;11.88;;;14.90;98.30;;;;;;5074695;28;20445;-67
2022/12/23 04:28:01;;;;;;;18.23;12.15;;;;;;;;;;5072244;28;20049;-67
2022/12/23 04:30:26;;;;;;;18.50;11.82;;;14.90;98.40;;;;;;5074571;28;20037;-68
2022/12/23 04:32:52;;;;;;;18.83;12.10;;;14.80;98.30;;;;;;5049202;28;20052;-67
2022/12/23 04:35:18;;;;;;;18.58;12.05;;;14.90;98.40;;;;;;5034630;28;20565;-67
2022/12/23 04:37:44;;;;;;;19.55;11.95;;;14.90;98.30;;;;;;5051731;28;20048;-65
2022/12/23 04:40:10;;;;;;;19.90;11.80;;;15.10;98.40;;;;;;5073500;28;20055;-66
2022/12/23 04:42:36;;;;;;;19.77;12.18;;;15.00;96.90;;;;;;5074875;28;20041;-67
2022/12/23 04:45:01;;;;;;;19.20;12.00;;;15.10;98.40;;;;;;5074047;28;20478;-69
2022/12/23 04:47:27;;;;;;;19.52;11.82;;;15.00;98.40;;;;;;5068805;28;20044;-67
2022/12/23 04:49:53;;;;;;;19.65;11.63;;;15.00;98.20;;;;;;5050130;28;20037;-68
2022/12/23 04:52:19;;;;;;;18.85;11.95;;;14.90;97.10;;;;;;5064169;28;20110;-69
2022/12/23 04:54:45;;;;;;;20.13;12.60;;;;;;;;;;5060106;28;20040;-68
2022/12/23 04:57:10;;;;;;;18.38;11.85;;;14.70;97.00;;;;;;5071249;28;20044;-67
2022/12/23 04:59:36;;;;;;;20.38;11.93;;;15.00;97.10;;;;;;5071973;28;20098;-66
2022/12/23 05:02:02;;;;;;;18.25;11.73;;;15.10;98.40;;;;;;5073108;28;20136;-68
2022/12/23 05:04:28;;;;;;;19.30;11.77;;;15.00;97.20;;;;;;5073598;28;20135;-67
2022/12/23 05:06:54;;;;;;;23.13;13.02;;;14.70;98.30;;;;;;5053968;28;20049;-67
2022/12/23 05:09:21;;;;;;;18.85;11.55;;;15.10;97.20;;;;;;5053653;28;20049;-68
2022/12/23 05:11:46;;;;;;;19.85;11.85;;;15.00;97.40;;;;;;5054191;28;20055;-67
2022/12/23 05:14:12;;;;;;;17.70;11.18;;;15.10;98.40;;;;;;5053566;28;20047;-68
2022/12/23 05:16:38;;;;;;;18.45;11.43;;;14.80;98.30;;;;;;5052788;28;20033;-67
2022/12/23 05:19:04;;;;;;;17.83;11.30;;;;;;;;;;5072811;28;20044;-69
2022/12/23 05:21:30;;;;;;;20.45;11.65;;;14.80;98.50;;;;;;5052101;28;20048;-66
2022/12/23 05:23:56;;;;;;;18.25;11.88;;;15.20;98.50;;;;;;5040392;28;20033;-66
2022/12/23 05:26:22;;;;;;;19.13;12.30;;;;;;;;;;5039921;28;20093;-67
2022/12/23 05:28:48;;;;;;;17.80;11.38;;;14.80;98.30;;;;;;5070214;28;20045;-68
2022/12/23 05:31:14;;;;;;;17.20;11.02;;;14.90;98.30;;;;;;5071269;28;20048;-67
2022/12/23 05:33:40;;;;;;;17.77;12.13;;;15.00;98.30;;;;;;5066479;28;20036;-67
2022/12/23 05:36:06;;;;;;;18.58;12.52;;;14.90;97.20;;;;;;5036605;28;20045;-67
2022/12/23 05:38:32;;;;;;;20.90;11.80;;;14.70;98.30;;;;;;5049662;28;20533;-67
2022/12/23 05:40:58;;;;;;;18.73;11.90;;;14.80;98.30;;;;;;5046539;28;20049;-70
2022/12/23 05:43:24;;;;;;;18.35;10.80;;;;;;;;;;5033319;28;20076;-67
2022/12/23 05:45:50;;;;;;;18.27;11.25;;;15.00;98.30;;;;;;5049917;28;20044;-68
2022/12/23 05:48:16;;;;;;;19.67;11.98;;;;;;;;;;5070999;28;20553;-68
2022/12/23 05:50:42;;;;;;;19.50;11.75;;;15.00;98.30;;;;;;5054053;28;20051;-68
2022/12/23 05:53:08;;;;;;;19.08;11.40;;;15.10;98.40;;;;;;5059920;28;20044;-68
2022/12/23 05:55:34;;;;;;;21.42;12.38;;;14.90;97.10;;;;;;5060103;28;20430;-66
2022/12/23 05:58:00;;;;;;;20.00;11.27;;;14.80;98.30;;;;;;5046550;28;20120;-67
2022/12/23 06:00:25;;;;;;;18.20;10.93;;;15.10;98.30;;;;;;5072871;28;20550;-66
2022/12/23 06:02:51;;;;;;;18.77;11.25;;;14.60;97.90;;;;;;5079796;28;20409;-66
2022/12/23 06:05:17;;;;;;;18.60;11.13;;;14.60;97.00;;;;;;5047933;28;20049;-67
2022/12/23 06:07:43;;;;;;;19.13;11.93;;;14.90;97.00;;;;;;5039568;28;20487;-67
2022/12/23 06:10:09;;;;;;;17.88;11.23;;;14.80;98.20;;;;;;5072235;28;20040;-66
2022/12/23 06:12:35;;;;;;;17.00;10.73;;;14.80;98.20;;;;;;5079978;28;20055;-67
2022/12/23 06:15:01;;;;;;;18.50;11.43;;;14.50;98.10;;;;;;5034020;28;20049;-67
2022/12/23 06:17:27;;;;;;;20.10;12.05;;;14.90;97.00;;;;;;5039984;28;20376;-66
2022/12/23 06:19:53;;;;;;;18.35;11.23;;;14.90;98.20;;;;;;5053979;28;20037;-66
2022/12/23 06:22:20;;;;;;;17.65;10.63;;;15.00;98.20;;;;;;5042523;28;20539;-66
2022/12/23 06:24:46;;;;;;;18.33;10.63;;;15.00;98.20;;;;;;5040595;28;20410;-66
2022/12/23 06:27:12;;;;;;;16.63;10.63;;;14.50;98.10;;;;;;5039777;28;20426;-67
2022/12/23 06:29:38;;;;;;;17.92;11.27;;;14.70;97.00;;;;;;5058781;28;20124;-67
2022/12/23 06:32:04;;;;;;;17.73;11.15;;;14.90;97.00;;;;;;5050950;28;20033;-66
2022/12/23 06:34:30;;;;;;;18.05;10.65;;;14.80;98.20;;;;;;5038218;28;20049;-66
2022/12/23 06:36:56;;;;;;;17.15;10.30;;;14.70;98.10;;;;;;5040065;28;20046;-68
2022/12/23 06:39:22;;;;;;;17.20;10.52;;;14.90;97.60;;;;;;5055186;28;20150;-66
2022/12/23 06:41:48;;;;;;;16.80;10.43;;;14.60;98.00;;;;;;5079434;28;20482;-67
2022/12/23 06:44:14;;;;;;;16.45;9.80;;;14.90;96.90;;;;;;5079744;28;20044;-67
2022/12/23 06:46:39;;;;;;;15.07;9.32;;;14.90;98.00;;;;;;5077186;28;20043;-68
2022/12/23 06:49:06;;;;;;;16.13;10.02;;;15.20;96.90;;;;;;5058653;28;20103;-68
2022/12/23 06:51:31;;;;;;;16.52;10.63;;;14.90;98.00;;;;;;5074157;28;20117;-68
2022/12/23 06:53:58;;;;;;;17.88;10.38;;;15.00;98.20;;;;;;5052324;28;20076;-66
2022/12/23 06:56:24;;;;;;;15.68;9.55;;;14.90;96.90;;;;;;5056037;28;20582;-65
2022/12/23 06:58:51;;;;;;;14.50;8.85;;;15.00;98.10;;;;;;5068411;28;20115;-67
2022/12/23 07:01:18;;;;;;;15.77;9.77;;;14.90;96.90;;;;;;5079274;28;20044;-66
2022/12/23 07:03:43;;;;;;;15.18;8.90;;;14.90;98.10;;;;;;5072169;28;20166;-66
2022/12/23 07:06:09;;;;;;;15.93;9.20;;;15.00;98.30;;;;;;5045982;28;20132;-67
2022/12/23 07:08:35;;;;;;;14.05;9.20;;;15.00;96.90;;;;;;5037089;28;20049;-66
2022/12/23 07:11:03;;;;;;;15.95;8.52;;;14.90;98.10;;;;;;5052743;28;20041;-67
2022/12/23 07:13:30;;;;;;;13.30;8.07;;;15.00;97.00;;;;;;5073700;28;20049;-66
2022/12/23 07:15:56;;;;;;;12.23;7.82;;;;;;;;;;5074629;28;20120;-67
2022/12/23 07:18:22;;;;;;;13.25;7.80;;;15.20;97.00;;;;;;5074583;28;20049;-67
2022/12/23 07:20:49;;;;;;;13.95;8.55;;;15.10;98.10;;;;;;5075786;28;20044;-67
2022/12/23 07:23:14;;;;;;;12.07;7.43;;;15.10;98.10;;;;;;5047581;28;20041;-66
2022/12/23 07:25:41;;;;;;;12.15;7.40;;;;;;;;;;5073496;28;20500;-68
2022/12/23 07:28:06;;;;;;;13.63;7.72;;;15.20;98.00;;;;;;5076402;28;20382;-66
2022/12/23 07:30:32;;;;;;;12.25;7.82;;;15.10;98.00;;;;;;5075513;28;20040;-67
2022/12/23 07:32:58;;;;;;;12.77;7.32;;;15.20;98.00;;;;;;5072009;28;20048;-66
2022/12/23 07:35:24;;;;;;;12.25;7.30;;;15.10;97.90;;;;;;5075744;28;20074;-66
2022/12/23 07:37:54;;;;;;;13.25;8.30;;;;;;;;;;5053586;28;20424;-67
2022/12/23 07:40:21;;;;;;;11.40;6.95;;;15.20;97.80;;;;;;5064631;28;20063;-66
2022/12/23 07:42:56;;;;;;;12.15;7.15;;;15.00;97.70;;;;;;5073156;28;20091;-66
2022/12/23 07:45:22;;;;;;;12.45;7.57;;;15.10;97.70;;;;;;5074233;28;20481;-67
2022/12/23 07:47:54;;;;;;;11.48;7.22;;;15.20;96.40;;;;;;5075450;28;20053;-66
2022/12/23 07:50:20;;;;;;;12.63;7.55;;;14.90;96.40;;;;;;5072591;28;20051;-67
2022/12/23 07:52:46;;;;;;;12.02;7.28;;;15.20;97.80;;;;;;5075412;28;20052;-67
2022/12/23 07:55:12;;;;;;;13.20;7.28;;;15.00;96.50;;;;;;5068184;28;20041;-66
2022/12/23 07:57:39;;;;;;;14.23;7.18;;;15.00;97.70;;;;;;5036773;28;20049;-67
2022/12/23 08:00:09;;;;;;;11.90;7.10;;;15.00;97.70;;;;;;5043447;28;20125;-67
2022/12/23 08:02:35;;;;;;;14.32;7.90;;;;;;;;;;5066580;28;20044;-67
2022/12/23 08:05:01;;;;;;;12.80;7.30;;;15.20;97.70;;;;;;5048445;28;20394;-66
2022/12/23 08:07:27;;;;;;;11.82;7.78;;;15.30;97.70;;;;;;5069523;28;20048;-67
2022/12/23 08:09:53;;;;;;;12.75;7.30;;;15.40;97.60;;;;;;5072555;28;20482;-67
2022/12/23 08:12:19;;;;;;;11.85;7.80;;;;;;;;;;5073945;28;20044;-67
2022/12/23 08:14:47;;;;;;;11.15;6.90;;;15.10;97.70;;;;;;5050680;28;20066;-77
2022/12/23 08:17:13;;;;;;;13.18;7.00;;;15.40;97.70;;;;;;5074973;28;20052;-74
2022/12/23 08:19:39;;;;;;;13.60;7.18;;;15.00;97.60;;;;;;5069482;28;20040;-68
2022/12/23 08:22:04;;;;;;;12.30;7.68;;;15.30;97.60;;;;;;5068353;28;20052;-68
2022/12/23 08:24:30;;;;;;;12.02;7.45;;;15.20;97.60;;;;;;5074690;28;20040;-68
2022/12/23 08:26:57;;;;;;;10.60;6.63;;;15.20;97.70;;;;;;5074373;28;20102;-67
2022/12/23 08:29:23;;;;;;;12.13;7.13;;;15.30;97.50;;;;;;5064731;28;20080;-68
2022/12/23 08:31:49;;;;;;;11.15;6.63;;;15.50;97.60;;;;;;5066064;28;20044;-68
2022/12/23 08:34:15;;;;;;;12.48;6.68;;;;;;;;;;5067617;28;20131;-64
2022/12/23 08:36:41;;;;;;;11.95;7.03;;;15.60;97.50;;;;;;5071928;28;20037;-66
2022/12/23 08:39:08;;;;;;;12.90;7.72;;;15.40;96.20;;;;;;5066185;28;20045;-73
2022/12/23 08:41:39;;;;;;;13.35;6.95;;;15.30;97.40;;;;;;5054225;28;20495;-73
2022/12/23 08:44:05;;;;;;;12.50;7.65;;;15.40;97.50;;;;;;5051902;28;20049;-66
2022/12/23 08:46:31;;;;;;;12.45;6.95;;;15.30;97.40;;;;;;5071664;28;20540;-68
2022/12/23 08:48:56;;;;;;;12.07;7.00;;;15.30;97.40;;;;;;5035155;28;20050;-67
2022/12/23 08:51:23;;;;;;;11.25;6.55;;;15.40;97.40;;;;;;5061814;28;20462;-67
2022/12/23 08:53:49;;;;;;;11.95;6.93;;;;;;;;;;5073780;28;20490;-67
2022/12/23 08:56:17;;;;;;;13.40;7.47;;;15.30;96.10;;;;;;5071627;28;20066;-66
2022/12/23 08:58:44;;;;;;;11.85;6.88;;;15.60;97.40;;;;;;5073009;28;20048;-68
2022/12/23 09:01:11;;;;;;;10.75;6.72;;;15.20;97.30;;;;;;5049135;28;20125;-66
2022/12/23 09:03:37;;;;;;;13.55;7.50;;;;;;;;;;5035960;28;20056;-65
2022/12/23 09:06:19;;;;;;;12.73;7.65;;;15.20;96.00;;;;;;5064991;28;20402;-59
2022/12/23 09:08:45;;;;;;;12.68;7.20;;;15.00;97.20;;;;;;5074166;28;20052;-64
2022/12/23 09:11:12;;;;;;;11.93;7.45;;;15.30;96.00;;;;;;5073994;28;20049;-63
2022/12/23 09:13:38;;;;;;;13.80;7.28;;;15.30;97.30;;;;;;5073707;28;20049;-63
2022/12/23 09:16:04;;;;;;;12.95;7.35;;;15.40;97.30;;;;;;5060311;28;20044;-66
2022/12/23 09:18:30;;;;;;;13.40;7.60;;;15.30;97.30;;;;;;5052348;28;20491;-65
2022/12/23 09:21:00;;;;;;;12.65;7.57;;;15.30;97.30;;;;;;5048972;28;20037;-66
2022/12/23 09:23:26;;;;;;;12.15;7.30;;;15.30;96.10;;;;;;5033690;28;20059;-65
2022/12/23 09:25:53;;;;;;;12.88;7.15;;;15.10;97.20;;;;;;5041119;28;20379;-66
2022/12/23 09:28:18;;;;;;;11.57;6.93;;;15.20;97.30;;;;;;5072150;28;20052;-66
2022/12/23 09:30:44;;;;;;;11.82;7.30;;;15.10;97.30;;;;;;5056742;28;20136;-67
2022/12/23 09:33:10;;;;;;;13.68;7.28;;;;;;;;;;5034031;28;20045;-65
2022/12/23 09:35:36;;;;;;;13.48;6.95;;;;;;;;;;5032075;28;20394;-65
2022/12/23 09:38:02;;;;;;;12.27;6.78;;;15.40;96.10;;;;;;5066741;28;20486;-65
2022/12/23 09:40:29;;;;;;;13.90;7.53;;;15.50;97.30;;;;;;5067259;28;20068;-68
2022/12/23 09:43:00;;;;;;;12.43;7.50;;;15.20;96.20;;;;;;5046171;28;20083;-69
2022/12/23 09:45:41;;;;;;;12.50;7.55;;;15.30;95.30;;;;;;5073492;28;20120;-71
2022/12/23 09:48:12;;;;;;;13.60;7.57;;;15.40;97.30;;;;;;5069367;28;20080;-71
2022/12/23 09:50:38;;;;;;;12.63;7.72;;;15.30;97.30;;;;;;5072307;28;20075;-67
2022/12/23 09:53:33;;;;;;;11.35;6.72;;;15.30;96.10;;;;;;5025831;28;20125;-68
2022/12/23 09:56:05;;;;;;;11.77;7.00;;;15.20;97.30;;;;;;5038536;28;20049;-67
2022/12/23 09:58:37;;;;;;;10.75;6.57;;;15.00;97.20;;;;;;5073480;28;20460;-68
2022/12/23 10:01:27;;;;;;;11.48;6.78;;;15.30;96.10;;;;;;5072610;28;20048;-68
2022/12/23 10:04:05;;;;;;;11.55;6.68;;;15.40;97.30;;;;;;5056969;28;20052;-68
2022/12/23 10:06:31;;;;;;;10.88;6.28;;;;;;;;;;5047100;28;20045;-70
2022/12/23 10:09:01;;;;;;;14.60;6.82;;;15.30;97.30;;;;;;5066852;28;20087;-68
2022/12/23 10:11:30;;;;;;;15.93;6.72;;;15.50;97.30;;;;;;5070932;28;20554;-69
2022/12/23 10:14:19;;;;;;;11.20;5.88;;;15.10;97.20;;;;;;5017258;28;20506;-73
2022/12/23 10:16:59;;;;;;;11.40;6.25;;;15.60;95.70;;;;;;5027195;28;20400;-73
2022/12/23 10:19:28;;;;;;;12.93;6.50;;;15.40;95.90;;;;;;5032303;28;20452;-72
2022/12/23 10:22:01;;;;;;;12.85;5.90;;;15.20;95.40;;;;;;5031858;28;20053;-67
2022/12/23 10:24:33;;;;;;;10.32;5.50;;;15.40;97.30;;;;;;5035215;28;20069;-68
2022/12/23 10:27:22;;;;;;;9.57;5.40;;;15.50;95.30;;;;;;5051619;28;20049;-65
2022/12/23 10:29:47;;;;;;;12.75;5.97;;;15.10;97.20;;;;;;5041218;28;20053;-70
2022/12/23 10:32:17;;;;;;;12.45;5.72;;;;;;;;;;5031975;28;20045;-69
2022/12/23 10:35:00;;;;;;;10.20;5.07;;;15.40;97.20;;;;;;5031645;28;20047;-70
2022/12/23 10:37:48;;;;;;;9.25;5.20;;;15.50;97.10;;;;;;5031485;28;20150;-70
2022/12/23 10:40:32;;;;;;;10.93;5.97;;;15.50;97.10;;;;;;5043898;28;20052;-70
2022/12/23 10:43:01;;;;;;;10.98;5.90;;;15.40;95.90;;;;;;5036548;28;20148;-69
2022/12/23 10:45:33;;;;;;;10.30;5.38;;;15.40;97.10;;;;;;5037290;28;20442;-69
2022/12/23 10:48:08;;;;;;;9.55;5.47;;;15.40;97.20;;;;;;5035568;28;20115;-67
2022/12/23 10:50:44;;;;;;;9.65;5.68;;;15.40;97.20;;;;;;5046951;28;20055;-67
2022/12/23 10:53:12;;;;;;;10.52;5.35;;;15.30;95.90;;;;;;5055282;28;20049;-68
2022/12/23 10:55:38;;;;;;;9.93;5.80;;;15.40;97.10;;;;;;5037567;28;20045;-69
2022/12/23 10:58:11;;;;;;;11.00;5.80;;;15.50;97.20;;;;;;5054728;28;20048;-68
2022/12/23 11:00:38;;;;;;;9.63;5.65;;;15.30;97.10;;;;;;5039119;28;20449;-68
2022/12/23 11:03:22;;;;;;;10.20;5.53;;;15.40;97.10;;;;;;5032773;28;20092;-68
2022/12/23 11:05:48;;;;;;;;;;;15.30;95.90;;;;;;5044630;28;20503;-68
2022/12/23 11:08:14;;;;;;;9.20;5.85;;;15.40;97.30;;;;;;5041305;28;19925;-67
2022/12/23 11:10:40;;;;;;;11.70;5.57;;;15.20;97.10;;;;;;5035904;28;20049;-69
2022/12/23 11:13:06;;;;;;;9.95;6.03;;;15.20;97.10;;;;;;5035123;28;20047;-67
2022/12/23 11:15:36;;;;;;;9.40;5.72;;;;;;;;;;5036219;28;20042;-69
2022/12/23 11:18:20;;;;;;;9.98;6.05;;;15.40;95.90;;;;;;5051500;28;20065;-68
2022/12/23 11:21:05;;;;;;;8.65;5.30;;;15.30;95.80;;;;;;5039928;28;20450;-68
2022/12/23 11:23:32;;;;;;;12.27;6.18;;;15.50;97.10;;;;;;5050980;28;20050;-70
2022/12/23 11:26:12;;;;;;;12.00;6.13;;;15.30;97.00;;;;;;5036018;28;20045;-70
2022/12/23 11:28:50;;;;;;;10.43;5.38;;;15.30;97.10;;;;;;5034757;28;20045;-72
2022/12/23 11:31:25;;;;;;;11.18;6.40;;;15.50;97.20;;;;;;5034729;28;20398;-70
2022/12/23 11:33:56;;;;;;;11.73;6.25;;;15.30;95.80;;;;;;5018259;28;20088;-69
2022/12/23 11:36:26;;;;;;;11.30;5.72;;;15.40;97.10;;;;;;5051564;28;20087;-70
2022/12/23 11:38:58;;;;;;;10.40;6.63;;;;;;;;;;5026282;28;20482;-68
2022/12/23 11:41:26;;;;;;;11.25;6.18;;;15.30;97.10;;;;;;5055459;28;20091;-67
2022/12/23 11:44:00;;;;;;;10.13;5.88;;;15.10;97.00;;;;;;5056232;28;20052;-68
2022/12/23 11:46:31;;;;;;;10.13;5.95;;;15.50;97.10;;;;;;5044065;28;20049;-72
2022/12/23 11:49:16;;;;;;;12.50;6.10;;;15.40;95.90;;;;;;5034599;28;20079;-72
2022/12/23 11:52:08;;;;;;;10.13;5.88;;;15.30;97.10;;;;;;5029085;28;20124;-72
2022/12/23 11:54:34;;;;;;;12.43;6.40;;;15.40;97.10;;;;;;5034414;28;20088;-67
2022/12/23 11:57:01;;;;;;;10.02;6.45;;;15.50;95.80;;;;;;5036383;28;20072;-67
2022/12/23 11:59:27;;;;;;;13.13;7.20;;;15.40;96.90;;;;;;5063309;28;20079;-72
2022/12/23 12:01:53;;;;;;;11.73;6.43;;;15.50;97.00;;;;;;5047355;28;20048;-71
2022/12/23 12:04:22;;;;;;;10.95;6.78;;;;;;;;;;5015916;28;20120;-72
2022/12/23 12:06:49;;;;;;;11.40;6.28;;;;;;;;;;5043963;28;20045;-72
2022/12/23 12:09:14;;;;;;;12.68;7.20;;;15.50;96.90;;;;;;5049714;28;20091;-70
2022/12/23 12:11:48;;;;;;;12.27;7.35;;;15.00;96.80;;;;;;5043249;28;20073;-72
2022/12/23 12:14:33;;;;;;;12.88;6.80;;;15.10;96.90;;;;;;5033752;28;20060;-69
2022/12/23 12:17:22;;;;;;;12.77;6.70;;;15.20;96.90;;;;;;5034473;28;20049;-69
2022/12/23 12:20:05;;;;;;;11.45;6.32;;;15.30;96.90;;;;;;5047743;28;20138;-73
2022/12/23 12:22:38;;;;;;;12.23;7.10;;;15.00;96.80;;;;;;5036806;28;20041;-67
2022/12/23 12:25:25;;;;;;;10.18;6.68;;;15.20;96.90;;;;;;5053353;28;20491;-68
2022/12/23 12:27:58;;;;;;;10.60;6.68;;;15.40;97.00;;;;;;5049372;28;20100;-67
2022/12/23 12:30:24;;;;;;;13.38;8.10;;;15.20;95.70;;;;;;5033980;28;20045;-67
2022/12/23 12:33:10;;;;;;;12.60;7.25;;;15.30;95.00;;;;;;5033547;28;20501;-67
2022/12/23 12:35:48;;;;;;;11.65;7.13;;;15.50;97.00;;;;;;5049850;28;20115;-67
2022/12/23 12:38:31;;;;;;;13.10;6.90;;;15.10;97.00;;;;;;5037583;28;20510;-68
2022/12/23 12:41:13;;;;;;;14.52;7.45;;;15.40;97.00;;;;;;5037033;28;20048;-70
2022/12/23 12:43:56;;;;;;;13.65;7.20;;;15.50;97.10;;;;;;5052770;28;20033;-69
2022/12/23 12:46:33;;;;;;;15.75;7.00;;;15.30;95.00;;;;;;5036905;28;20134;-68
2022/12/23 12:49:30;;;;;;;15.70;8.05;;;15.30;95.80;;;;;;5049741;28;20049;-68
2022/12/23 12:52:12;;;;;;;14.18;8.07;;;15.20;95.80;;;;;;5029002;28;20049;-68
2022/12/23 12:54:58;;;;;;;13.77;8.00;;;15.20;96.70;;;;;;5030631;28;21016;-68
2022/12/23 12:57:24;;;;;;;15.43;8.75;;;15.30;97.00;;;;;;5033805;28;20143;-67
2022/12/23 12:59:52;;;;;;;15.27;7.90;;;15.00;97.00;;;;;;5033918;28;20069;-68
2022/12/23 13:02:45;;;;;;;16.65;7.95;;;15.40;95.20;;;;;;5032501;28;20050;-69
2022/12/23 13:05:29;;;;;;;16.98;9.02;;;15.30;95.30;;;;;;5034164;28;20049;-71
2022/12/23 13:07:59;;;;;;;15.25;8.13;;;15.10;97.00;;;;;;5034104;28;20132;-70
2022/12/23 13:10:46;;;;;;;14.23;7.70;;;15.10;95.20;;;;;;5049436;28;20046;-68
2022/12/23 13:13:39;;;;;;;15.43;8.40;;;15.20;97.10;;;;;;5049502;28;20037;-68
2022/12/23 13:16:14;;;;;;;14.98;8.35;;;14.80;97.00;;;;;;5033755;28;20089;-66
2022/12/23 13:18:50;;;;;;;13.38;7.93;;;15.30;95.10;;;;;;5051574;28;20107;-68
2022/12/23 13:21:23;;;;;;;16.25;8.88;;;15.20;97.10;;;;;;5035059;28;20049;-67
2022/12/23 13:23:52;;;;;;;18.00;7.63;;;15.10;97.10;;;;;;5032371;28;20055;-66
2022/12/23 13:26:24;;;;;;;14.23;7.72;;;15.20;96.00;;;;;;5033562;28;20053;-67